sensor_id;sensor_type;location;lat;lon;timestamp;temperature;humidity
58469;DHT22;44257;44.804;10.220;2023-11-19T00:00:27;6.30;99.90
58469;DHT22;44257;44.804;10.220;2023-11-19T00:02:53;6.30;99.90
58469;DHT22;44257;44.804;10.220;2023-11-19T00:05:19;6.20;99.90
58469;DHT22;44257;44.804;10.220;2023-11-19T00:07:45;6.20;99.90
58469;DHT22;44257;44.804;10.220;2023-11-19T00:10:13;6.10;99.90
58469;DHT22;44257;44.804;10.220;2023-11-19T00:12:42;6.10;99.90
58469;DHT22;44257;44.804;10.220;2023-11-19T00:15:10;6.10;99.90
58469;DHT22;44257;44.804;10.220;2023-11-19T00:17:40;6.00;99.90
58469;DHT22;44257;44.804;10.220;2023-11-19T00:20:06;6.00;99.90
58469;DHT22;44257;44.804;10.220;2023-11-19T00:22:33;5.90;99.90
58469;DHT22;44257;44.804;10.220;2023-11-19T00:24:59;5.90;99.90
58469;DHT22;44257;44.804;10.220;2023-11-19T00:27:25;5.90;99.90
58469;DHT22;44257;44.804;10.220;2023-11-19T00:29:51;5.80;99.90
58469;DHT22;44257;44.804;10.220;2023-11-19T00:32:17;5.90;99.90
58469;DHT22;44257;44.804;10.220;2023-11-19T00:34:46;5.80;99.90
58469;DHT22;44257;44.804;10.220;2023-11-19T00:37:14;5.80;99.90
58469;DHT22;44257;44.804;10.220;2023-11-19T00:39:41;5.70;99.90
58469;DHT22;44257;44.804;10.220;2023-11-19T00:42:07;5.70;99.90
58469;DHT22;44257;44.804;10.220;2023-11-19T00:44:36;5.70;99.90
58469;DHT22;44257;44.804;10.220;2023-11-19T00:47:02;5.70;99.90
58469;DHT22;44257;44.804;10.220;2023-11-19T00:49:28;5.60;99.90
58469;DHT22;44257;44.804;10.220;2023-11-19T00:51:54;5.60;99.90
58469;DHT22;44257;44.804;10.220;2023-11-19T00:54:20;5.50;99.90
58469;DHT22;44257;44.804;10.220;2023-11-19T00:56:45;5.50;99.90
58469;DHT22;44257;44.804;10.220;2023-11-19T00:59:11;5.40;99.90
58469;DHT22;44257;44.804;10.220;2023-11-19T01:01:37;5.40;99.90
58469;DHT22;44257;44.804;10.220;2023-11-19T01:04:03;5.30;99.90
58469;DHT22;44257;44.804;10.220;2023-11-19T01:06:30;5.30;99.90
58469;DHT22;44257;44.804;10.220;2023-11-19T01:08:56;5.20;99.90
58469;DHT22;44257;44.804;10.220;2023-11-19T01:11:23;5.10;99.90
58469;DHT22;44257;44.804;10.220;2023-11-19T01:13:49;5.10;99.90
58469;DHT22;44257;44.804;10.220;2023-11-19T01:16:16;5.10;99.90
58469;DHT22;44257;44.804;10.220;2023-11-19T01:18:43;5.10;99.90
58469;DHT22;44257;44.804;10.220;2023-11-19T01:21:09;5.10;99.90
58469;DHT22;44257;44.804;10.220;2023-11-19T01:23:36;5.10;99.90
58469;DHT22;44257;44.804;10.220;2023-11-19T01:26:03;5.00;99.90
58469;DHT22;44257;44.804;10.220;2023-11-19T01:28:28;5.10;99.90
58469;DHT22;44257;44.804;10.220;2023-11-19T01:30:56;5.10;99.90
58469;DHT22;44257;44.804;10.220;2023-11-19T01:33:22;5.10;99.90
58469;DHT22;44257;44.804;10.220;2023-11-19T01:35:48;5.10;99.90
58469;DHT22;44257;44.804;10.220;2023-11-19T01:38:14;5.10;99.90
58469;DHT22;44257;44.804;10.220;2023-11-19T01:40:40;5.10;99.90
58469;DHT22;44257;44.804;10.220;2023-11-19T01:43:06;5.10;99.90
58469;DHT22;44257;44.804;10.220;2023-11-19T01:45:33;5.10;99.90
58469;DHT22;44257;44.804;10.220;2023-11-19T01:48:01;5.10;99.90
58469;DHT22;44257;44.804;10.220;2023-11-19T01:50:30;5.10;99.90
58469;DHT22;44257;44.804;10.220;2023-11-19T01:52:57;5.20;99.90
58469;DHT22;44257;44.804;10.220;2023-11-19T01:55:25;5.20;99.90
58469;DHT22;44257;44.804;10.220;2023-11-19T01:57:53;5.20;99.90
58469;DHT22;44257;44.804;10.220;2023-11-19T02:00:21;5.30;99.90
58469;DHT22;44257;44.804;10.220;2023-11-19T02:02:47;5.30;99.90
58469;DHT22;44257;44.804;10.220;2023-11-19T02:05:14;5.30;99.90
58469;DHT22;44257;44.804;10.220;2023-11-19T02:07:40;5.20;99.90
58469;DHT22;44257;44.804;10.220;2023-11-19T02:10:06;5.20;99.90
58469;DHT22;44257;44.804;10.220;2023-11-19T02:12:40;5.20;99.90
58469;DHT22;44257;44.804;10.220;2023-11-19T02:15:09;5.10;99.90
58469;DHT22;44257;44.804;10.220;2023-11-19T02:17:35;5.10;99.90
58469;DHT22;44257;44.804;10.220;2023-11-19T02:20:06;5.10;99.90
58469;DHT22;44257;44.804;10.220;2023-11-19T02:22:37;5.10;99.90
58469;DHT22;44257;44.804;10.220;2023-11-19T02:25:30;5.10;99.90
58469;DHT22;44257;44.804;10.220;2023-11-19T02:28:02;5.10;99.90
58469;DHT22;44257;44.804;10.220;2023-11-19T02:30:29;5.10;99.90
58469;DHT22;44257;44.804;10.220;2023-11-19T02:32:59;5.10;99.90
58469;DHT22;44257;44.804;10.220;2023-11-19T02:35:27;5.20;99.90
58469;DHT22;44257;44.804;10.220;2023-11-19T02:37:54;5.20;99.90
58469;DHT22;44257;44.804;10.220;2023-11-19T02:40:20;5.30;99.90
58469;DHT22;44257;44.804;10.220;2023-11-19T02:42:50;5.30;99.90
58469;DHT22;44257;44.804;10.220;2023-11-19T02:45:16;5.30;99.90
58469;DHT22;44257;44.804;10.220;2023-11-19T02:47:42;5.30;99.90
58469;DHT22;44257;44.804;10.220;2023-11-19T02:50:10;5.30;99.90
58469;DHT22;44257;44.804;10.220;2023-11-19T02:52:44;5.40;99.90
58469;DHT22;44257;44.804;10.220;2023-11-19T02:55:11;5.40;99.90
58469;DHT22;44257;44.804;10.220;2023-11-19T02:57:41;5.50;99.90
58469;DHT22;44257;44.804;10.220;2023-11-19T03:00:17;5.60;99.90
58469;DHT22;44257;44.804;10.220;2023-11-19T03:02:44;5.60;99.90
58469;DHT22;44257;44.804;10.220;2023-11-19T03:05:19;5.50;99.90
58469;DHT22;44257;44.804;10.220;2023-11-19T03:07:45;5.40;99.90
58469;DHT22;44257;44.804;10.220;2023-11-19T03:10:12;5.40;99.90
58469;DHT22;44257;44.804;10.220;2023-11-19T03:12:40;5.30;99.90
58469;DHT22;44257;44.804;10.220;2023-11-19T03:15:07;5.30;99.90
58469;DHT22;44257;44.804;10.220;2023-11-19T03:17:33;5.30;99.90
58469;DHT22;44257;44.804;10.220;2023-11-19T03:20:00;5.40;99.90
58469;DHT22;44257;44.804;10.220;2023-11-19T03:22:26;5.40;99.90
58469;DHT22;44257;44.804;10.220;2023-11-19T03:24:52;5.40;99.90
58469;DHT22;44257;44.804;10.220;2023-11-19T03:27:18;5.40;99.90
58469;DHT22;44257;44.804;10.220;2023-11-19T03:29:44;5.40;99.90
58469;DHT22;44257;44.804;10.220;2023-11-19T03:32:10;5.30;99.90
58469;DHT22;44257;44.804;10.220;2023-11-19T03:34:36;5.20;99.90
58469;DHT22;44257;44.804;10.220;2023-11-19T03:37:03;5.20;99.90
58469;DHT22;44257;44.804;10.220;2023-11-19T03:39:29;5.20;99.90
58469;DHT22;44257;44.804;10.220;2023-11-19T03:41:55;5.20;99.90
58469;DHT22;44257;44.804;10.220;2023-11-19T03:44:20;5.20;99.90
58469;DHT22;44257;44.804;10.220;2023-11-19T03:46:47;5.20;99.90
58469;DHT22;44257;44.804;10.220;2023-11-19T03:49:12;5.10;99.90
58469;DHT22;44257;44.804;10.220;2023-11-19T03:51:38;5.10;99.90
58469;DHT22;44257;44.804;10.220;2023-11-19T03:54:06;5.00;99.90
58469;DHT22;44257;44.804;10.220;2023-11-19T03:56:32;5.00;99.90
58469;DHT22;44257;44.804;10.220;2023-11-19T03:58:58;4.90;99.90
58469;DHT22;44257;44.804;10.220;2023-11-19T04:01:24;4.90;99.90
58469;DHT22;44257;44.804;10.220;2023-11-19T04:03:50;4.90;99.90
58469;DHT22;44257;44.804;10.220;2023-11-19T04:06:16;4.90;99.90
58469;DHT22;44257;44.804;10.220;2023-11-19T04:08:41;4.90;99.90
58469;DHT22;44257;44.804;10.220;2023-11-19T04:11:07;4.90;99.90
58469;DHT22;44257;44.804;10.220;2023-11-19T04:13:34;5.00;99.90
58469;DHT22;44257;44.804;10.220;2023-11-19T04:16:00;5.00;99.90
58469;DHT22;44257;44.804;10.220;2023-11-19T04:18:26;5.00;99.90
58469;DHT22;44257;44.804;10.220;2023-11-19T04:20:52;5.00;99.90
58469;DHT22;44257;44.804;10.220;2023-11-19T04:23:18;5.00;99.90
58469;DHT22;44257;44.804;10.220;2023-11-19T04:25:44;5.00;99.90
58469;DHT22;44257;44.804;10.220;2023-11-19T04:28:09;5.00;99.90
58469;DHT22;44257;44.804;10.220;2023-11-19T04:30:36;5.00;99.90
58469;DHT22;44257;44.804;10.220;2023-11-19T04:33:03;4.90;99.90
58469;DHT22;44257;44.804;10.220;2023-11-19T04:35:29;4.90;99.90
58469;DHT22;44257;44.804;10.220;2023-11-19T04:37:54;4.90;99.90
58469;DHT22;44257;44.804;10.220;2023-11-19T04:40:23;4.80;99.90
58469;DHT22;44257;44.804;10.220;2023-11-19T04:42:49;4.80;99.90
58469;DHT22;44257;44.804;10.220;2023-11-19T04:45:15;4.80;99.90
58469;DHT22;44257;44.804;10.220;2023-11-19T04:47:42;4.70;99.90
58469;DHT22;44257;44.804;10.220;2023-11-19T04:50:08;4.70;99.90
58469;DHT22;44257;44.804;10.220;2023-11-19T04:52:38;4.60;99.90
58469;DHT22;44257;44.804;10.220;2023-11-19T04:55:06;4.60;99.90
58469;DHT22;44257;44.804;10.220;2023-11-19T04:57:32;4.50;99.90
58469;DHT22;44257;44.804;10.220;2023-11-19T04:59:58;4.40;99.90
58469;DHT22;44257;44.804;10.220;2023-11-19T05:02:24;4.40;99.90
58469;DHT22;44257;44.804;10.220;2023-11-19T05:04:50;4.40;99.90
58469;DHT22;44257;44.804;10.220;2023-11-19T05:07:16;4.40;99.90
58469;DHT22;44257;44.804;10.220;2023-11-19T05:09:42;4.40;99.90
58469;DHT22;44257;44.804;10.220;2023-11-19T05:12:08;4.40;99.90
58469;DHT22;44257;44.804;10.220;2023-11-19T05:14:38;4.40;99.90
58469;DHT22;44257;44.804;10.220;2023-11-19T05:17:04;4.40;99.90
58469;DHT22;44257;44.804;10.220;2023-11-19T05:19:29;4.40;99.90
58469;DHT22;44257;44.804;10.220;2023-11-19T05:21:55;4.40;99.90
58469;DHT22;44257;44.804;10.220;2023-11-19T05:24:22;4.40;99.90
58469;DHT22;44257;44.804;10.220;2023-11-19T05:26:48;4.30;99.90
58469;DHT22;44257;44.804;10.220;2023-11-19T05:29:15;4.30;99.90
58469;DHT22;44257;44.804;10.220;2023-11-19T05:31:42;4.30;99.90
58469;DHT22;44257;44.804;10.220;2023-11-19T05:34:08;4.30;99.90
58469;DHT22;44257;44.804;10.220;2023-11-19T05:36:34;4.30;99.90
58469;DHT22;44257;44.804;10.220;2023-11-19T05:39:00;4.20;99.90
58469;DHT22;44257;44.804;10.220;2023-11-19T05:41:25;4.20;99.90
58469;DHT22;44257;44.804;10.220;2023-11-19T05:43:51;4.20;99.90
58469;DHT22;44257;44.804;10.220;2023-11-19T05:46:17;4.20;99.90
58469;DHT22;44257;44.804;10.220;2023-11-19T05:48:43;4.20;99.90
58469;DHT22;44257;44.804;10.220;2023-11-19T05:51:09;4.10;99.90
58469;DHT22;44257;44.804;10.220;2023-11-19T05:53:35;4.10;99.90
58469;DHT22;44257;44.804;10.220;2023-11-19T05:56:01;4.10;99.90
58469;DHT22;44257;44.804;10.220;2023-11-19T05:58:29;4.00;99.90
58469;DHT22;44257;44.804;10.220;2023-11-19T06:00:56;4.00;99.90
58469;DHT22;44257;44.804;10.220;2023-11-19T06:03:22;4.00;99.90
58469;DHT22;44257;44.804;10.220;2023-11-19T06:05:49;4.00;99.90
58469;DHT22;44257;44.804;10.220;2023-11-19T06:08:15;4.00;99.90
58469;DHT22;44257;44.804;10.220;2023-11-19T06:10:41;4.00;99.90
58469;DHT22;44257;44.804;10.220;2023-11-19T06:13:08;4.00;99.90
58469;DHT22;44257;44.804;10.220;2023-11-19T06:15:36;4.00;99.90
58469;DHT22;44257;44.804;10.220;2023-11-19T06:18:02;4.10;99.90
58469;DHT22;44257;44.804;10.220;2023-11-19T06:20:29;4.20;99.90
58469;DHT22;44257;44.804;10.220;2023-11-19T06:22:56;4.30;99.90
58469;DHT22;44257;44.804;10.220;2023-11-19T06:25:22;4.40;99.90
58469;DHT22;44257;44.804;10.220;2023-11-19T06:27:50;4.30;99.90
58469;DHT22;44257;44.804;10.220;2023-11-19T06:30:16;4.10;99.90
58469;DHT22;44257;44.804;10.220;2023-11-19T06:32:42;4.00;99.90
58469;DHT22;44257;44.804;10.220;2023-11-19T06:35:08;3.90;99.90
58469;DHT22;44257;44.804;10.220;2023-11-19T06:37:38;3.80;99.90
58469;DHT22;44257;44.804;10.220;2023-11-19T06:40:05;3.70;99.90
58469;DHT22;44257;44.804;10.220;2023-11-19T06:42:31;3.70;99.90
58469;DHT22;44257;44.804;10.220;2023-11-19T06:44:57;3.70;99.90
58469;DHT22;44257;44.804;10.220;2023-11-19T06:47:26;3.70;99.90
58469;DHT22;44257;44.804;10.220;2023-11-19T06:49:52;3.70;99.90
58469;DHT22;44257;44.804;10.220;2023-11-19T06:52:18;3.80;99.90
58469;DHT22;44257;44.804;10.220;2023-11-19T06:54:44;3.90;99.90
58469;DHT22;44257;44.804;10.220;2023-11-19T06:57:13;4.00;99.90
58469;DHT22;44257;44.804;10.220;2023-11-19T06:59:39;4.10;99.90
58469;DHT22;44257;44.804;10.220;2023-11-19T07:02:06;4.20;99.90
58469;DHT22;44257;44.804;10.220;2023-11-19T07:04:32;4.20;99.90
58469;DHT22;44257;44.804;10.220;2023-11-19T07:07:01;4.20;99.90
58469;DHT22;44257;44.804;10.220;2023-11-19T07:09:27;4.30;99.90
58469;DHT22;44257;44.804;10.220;2023-11-19T07:11:53;4.40;99.90
58469;DHT22;44257;44.804;10.220;2023-11-19T07:14:19;4.50;99.90
58469;DHT22;44257;44.804;10.220;2023-11-19T07:16:45;4.50;99.90
58469;DHT22;44257;44.804;10.220;2023-11-19T07:19:16;4.60;99.90
58469;DHT22;44257;44.804;10.220;2023-11-19T07:21:42;4.70;99.90
58469;DHT22;44257;44.804;10.220;2023-11-19T07:24:10;4.80;99.90
58469;DHT22;44257;44.804;10.220;2023-11-19T07:26:36;4.80;99.90
58469;DHT22;44257;44.804;10.220;2023-11-19T07:29:03;4.90;99.90
58469;DHT22;44257;44.804;10.220;2023-11-19T07:31:29;5.00;99.90
58469;DHT22;44257;44.804;10.220;2023-11-19T07:33:55;5.10;99.90
58469;DHT22;44257;44.804;10.220;2023-11-19T07:36:21;5.30;99.90
58469;DHT22;44257;44.804;10.220;2023-11-19T07:38:47;5.40;99.90
58469;DHT22;44257;44.804;10.220;2023-11-19T07:41:17;5.50;99.90
58469;DHT22;44257;44.804;10.220;2023-11-19T07:43:46;5.60;99.90
58469;DHT22;44257;44.804;10.220;2023-11-19T07:46:16;5.80;99.90
58469;DHT22;44257;44.804;10.220;2023-11-19T07:48:48;6.10;99.90
58469;DHT22;44257;44.804;10.220;2023-11-19T07:51:15;6.20;99.90
58469;DHT22;44257;44.804;10.220;2023-11-19T07:53:41;6.30;99.90
58469;DHT22;44257;44.804;10.220;2023-11-19T07:56:09;6.40;99.90
58469;DHT22;44257;44.804;10.220;2023-11-19T07:58:37;6.60;99.90
58469;DHT22;44257;44.804;10.220;2023-11-19T08:01:04;6.70;99.90
58469;DHT22;44257;44.804;10.220;2023-11-19T08:03:30;6.90;99.90
58469;DHT22;44257;44.804;10.220;2023-11-19T08:05:56;7.10;99.90
58469;DHT22;44257;44.804;10.220;2023-11-19T08:08:22;7.30;99.90
58469;DHT22;44257;44.804;10.220;2023-11-19T08:10:48;7.50;99.90
58469;DHT22;44257;44.804;10.220;2023-11-19T08:13:14;7.60;99.90
58469;DHT22;44257;44.804;10.220;2023-11-19T08:15:40;7.70;99.90
58469;DHT22;44257;44.804;10.220;2023-11-19T08:18:06;7.90;99.90
58469;DHT22;44257;44.804;10.220;2023-11-19T08:20:33;8.10;99.90
58469;DHT22;44257;44.804;10.220;2023-11-19T08:22:59;8.30;99.90
58469;DHT22;44257;44.804;10.220;2023-11-19T08:25:25;8.40;99.90
58469;DHT22;44257;44.804;10.220;2023-11-19T08:27:52;8.50;99.90
58469;DHT22;44257;44.804;10.220;2023-11-19T08:30:19;8.60;99.90
58469;DHT22;44257;44.804;10.220;2023-11-19T08:32:45;8.70;99.90
58469;DHT22;44257;44.804;10.220;2023-11-19T08:35:12;8.80;99.90
58469;DHT22;44257;44.804;10.220;2023-11-19T08:37:39;8.90;99.90
58469;DHT22;44257;44.804;10.220;2023-11-19T08:40:05;9.00;99.90
58469;DHT22;44257;44.804;10.220;2023-11-19T08:42:33;9.20;99.90
58469;DHT22;44257;44.804;10.220;2023-11-19T08:44:59;9.40;99.90
58469;DHT22;44257;44.804;10.220;2023-11-19T08:47:25;9.50;99.90
58469;DHT22;44257;44.804;10.220;2023-11-19T08:49:52;9.70;99.90
58469;DHT22;44257;44.804;10.220;2023-11-19T08:52:22;9.80;99.90
58469;DHT22;44257;44.804;10.220;2023-11-19T08:54:48;10.00;99.90
58469;DHT22;44257;44.804;10.220;2023-11-19T08:57:14;10.10;99.90
58469;DHT22;44257;44.804;10.220;2023-11-19T08:59:40;10.20;99.90
58469;DHT22;44257;44.804;10.220;2023-11-19T09:02:07;10.40;99.90
58469;DHT22;44257;44.804;10.220;2023-11-19T09:04:34;10.50;99.90
58469;DHT22;44257;44.804;10.220;2023-11-19T09:07:02;10.70;99.90
58469;DHT22;44257;44.804;10.220;2023-11-19T09:09:29;10.70;99.90
58469;DHT22;44257;44.804;10.220;2023-11-19T09:11:56;10.80;99.90
58469;DHT22;44257;44.804;10.220;2023-11-19T09:14:24;11.00;99.90
58469;DHT22;44257;44.804;10.220;2023-11-19T09:16:53;11.10;99.90
58469;DHT22;44257;44.804;10.220;2023-11-19T09:19:20;11.20;99.90
58469;DHT22;44257;44.804;10.220;2023-11-19T09:21:46;11.30;99.90
58469;DHT22;44257;44.804;10.220;2023-11-19T09:24:15;11.40;99.90
58469;DHT22;44257;44.804;10.220;2023-11-19T09:26:42;11.40;99.90
58469;DHT22;44257;44.804;10.220;2023-11-19T09:29:10;11.50;99.90
58469;DHT22;44257;44.804;10.220;2023-11-19T09:31:38;11.50;99.90
58469;DHT22;44257;44.804;10.220;2023-11-19T09:34:05;11.60;99.90
58469;DHT22;44257;44.804;10.220;2023-11-19T09:36:32;11.60;99.90
58469;DHT22;44257;44.804;10.220;2023-11-19T09:38:59;11.60;99.90
58469;DHT22;44257;44.804;10.220;2023-11-19T09:41:30;11.70;99.90
58469;DHT22;44257;44.804;10.220;2023-11-19T09:43:56;11.70;99.90
58469;DHT22;44257;44.804;10.220;2023-11-19T09:46:23;11.60;99.90
58469;DHT22;44257;44.804;10.220;2023-11-19T09:48:54;11.70;99.90
58469;DHT22;44257;44.804;10.220;2023-11-19T09:51:24;11.90;99.90
58469;DHT22;44257;44.804;10.220;2023-11-19T09:53:50;12.00;99.90
58469;DHT22;44257;44.804;10.220;2023-11-19T09:56:17;12.10;99.90
58469;DHT22;44257;44.804;10.220;2023-11-19T09:58:42;12.10;99.90
58469;DHT22;44257;44.804;10.220;2023-11-19T10:01:08;12.20;99.90
58469;DHT22;44257;44.804;10.220;2023-11-19T10:03:38;12.30;99.90
58469;DHT22;44257;44.804;10.220;2023-11-19T10:06:08;12.40;99.90
58469;DHT22;44257;44.804;10.220;2023-11-19T10:08:37;12.30;99.90
58469;DHT22;44257;44.804;10.220;2023-11-19T10:11:08;12.30;99.90
58469;DHT22;44257;44.804;10.220;2023-11-19T10:13:37;12.30;99.90
58469;DHT22;44257;44.804;10.220;2023-11-19T10:16:14;12.30;99.90
58469;DHT22;44257;44.804;10.220;2023-11-19T10:18:48;12.50;99.90
58469;DHT22;44257;44.804;10.220;2023-11-19T10:21:18;12.60;99.90
58469;DHT22;44257;44.804;10.220;2023-11-19T10:23:51;12.80;99.90
58469;DHT22;44257;44.804;10.220;2023-11-19T10:26:18;13.00;99.90
58469;DHT22;44257;44.804;10.220;2023-11-19T10:28:46;13.20;99.90
58469;DHT22;44257;44.804;10.220;2023-11-19T10:31:16;13.30;99.90
58469;DHT22;44257;44.804;10.220;2023-11-19T10:33:43;13.40;99.90
58469;DHT22;44257;44.804;10.220;2023-11-19T10:36:11;13.50;99.90
58469;DHT22;44257;44.804;10.220;2023-11-19T10:38:40;13.50;99.90
58469;DHT22;44257;44.804;10.220;2023-11-19T10:41:07;13.70;99.90
58469;DHT22;44257;44.804;10.220;2023-11-19T10:43:45;13.80;99.90
58469;DHT22;44257;44.804;10.220;2023-11-19T10:46:12;13.90;99.90
58469;DHT22;44257;44.804;10.220;2023-11-19T10:48:39;14.00;99.90
58469;DHT22;44257;44.804;10.220;2023-11-19T10:51:06;14.10;99.90
58469;DHT22;44257;44.804;10.220;2023-11-19T10:53:38;14.10;99.90
58469;DHT22;44257;44.804;10.220;2023-11-19T10:56:09;14.10;99.90
58469;DHT22;44257;44.804;10.220;2023-11-19T10:58:36;14.20;99.90
58469;DHT22;44257;44.804;10.220;2023-11-19T11:01:11;14.30;99.90
58469;DHT22;44257;44.804;10.220;2023-11-19T11:03:42;14.20;99.90
58469;DHT22;44257;44.804;10.220;2023-11-19T11:06:13;14.20;99.90
58469;DHT22;44257;44.804;10.220;2023-11-19T11:08:39;14.30;99.90
58469;DHT22;44257;44.804;10.220;2023-11-19T11:11:06;14.40;99.90
58469;DHT22;44257;44.804;10.220;2023-11-19T11:13:33;14.50;99.90
58469;DHT22;44257;44.804;10.220;2023-11-19T11:15:59;14.60;99.90
58469;DHT22;44257;44.804;10.220;2023-11-19T11:18:26;14.50;99.90
58469;DHT22;44257;44.804;10.220;2023-11-19T11:20:55;14.40;99.90
58469;DHT22;44257;44.804;10.220;2023-11-19T11:29:35;14.70;99.90
58469;DHT22;44257;44.804;10.220;2023-11-19T11:35:08;14.90;99.90
58469;DHT22;44257;44.804;10.220;2023-11-19T11:37:49;14.90;99.90
58469;DHT22;44257;44.804;10.220;2023-11-19T11:40:18;15.10;99.90
58469;DHT22;44257;44.804;10.220;2023-11-19T11:42:45;15.20;99.90
58469;DHT22;44257;44.804;10.220;2023-11-19T11:45:12;15.20;99.90
58469;DHT22;44257;44.804;10.220;2023-11-19T11:50:26;15.40;99.90
58469;DHT22;44257;44.804;10.220;2023-11-19T11:55:36;15.50;99.90
58469;DHT22;44257;44.804;10.220;2023-11-19T11:58:11;15.60;99.90
58469;DHT22;44257;44.804;10.220;2023-11-19T12:00:40;15.80;99.90
58469;DHT22;44257;44.804;10.220;2023-11-19T12:03:07;15.80;99.90
58469;DHT22;44257;44.804;10.220;2023-11-19T12:05:40;15.80;99.90
58469;DHT22;44257;44.804;10.220;2023-11-19T12:08:07;15.80;99.90
58469;DHT22;44257;44.804;10.220;2023-11-19T12:10:57;15.90;99.90
58469;DHT22;44257;44.804;10.220;2023-11-19T12:13:24;16.10;99.90
58469;DHT22;44257;44.804;10.220;2023-11-19T12:18:31;16.30;99.90
58469;DHT22;44257;44.804;10.220;2023-11-19T12:20:58;16.30;99.90
58469;DHT22;44257;44.804;10.220;2023-11-19T12:23:29;16.30;99.90
58469;DHT22;44257;44.804;10.220;2023-11-19T12:25:56;16.40;99.90
58469;DHT22;44257;44.804;10.220;2023-11-19T12:28:22;16.60;99.90
58469;DHT22;44257;44.804;10.220;2023-11-19T12:30:50;16.60;99.90
58469;DHT22;44257;44.804;10.220;2023-11-19T12:33:16;16.60;99.90
58469;DHT22;44257;44.804;10.220;2023-11-19T12:35:44;16.70;99.90
58469;DHT22;44257;44.804;10.220;2023-11-19T12:38:25;16.60;99.90
58469;DHT22;44257;44.804;10.220;2023-11-19T12:41:08;16.60;99.90
58469;DHT22;44257;44.804;10.220;2023-11-19T12:43:37;16.60;99.90
58469;DHT22;44257;44.804;10.220;2023-11-19T12:46:22;16.60;99.90
58469;DHT22;44257;44.804;10.220;2023-11-19T12:48:51;16.70;99.90
58469;DHT22;44257;44.804;10.220;2023-11-19T12:51:18;16.60;99.90
58469;DHT22;44257;44.804;10.220;2023-11-19T12:53:49;16.60;99.90
58469;DHT22;44257;44.804;10.220;2023-11-19T12:56:16;16.40;99.90
58469;DHT22;44257;44.804;10.220;2023-11-19T12:58:42;16.20;99.90
58469;DHT22;44257;44.804;10.220;2023-11-19T13:01:09;16.10;99.90
58469;DHT22;44257;44.804;10.220;2023-11-19T13:03:38;16.20;99.90
58469;DHT22;44257;44.804;10.220;2023-11-19T13:06:06;16.20;99.90
58469;DHT22;44257;44.804;10.220;2023-11-19T13:08:40;16.30;99.90
58469;DHT22;44257;44.804;10.220;2023-11-19T13:11:07;16.30;99.90
58469;DHT22;44257;44.804;10.220;2023-11-19T13:13:59;16.50;99.90
58469;DHT22;44257;44.804;10.220;2023-11-19T13:16:26;16.60;99.90
58469;DHT22;44257;44.804;10.220;2023-11-19T13:18:53;16.50;99.90
58469;DHT22;44257;44.804;10.220;2023-11-19T13:21:19;16.30;99.90
58469;DHT22;44257;44.804;10.220;2023-11-19T13:23:45;16.20;99.90
58469;DHT22;44257;44.804;10.220;2023-11-19T13:26:11;16.30;99.90
58469;DHT22;44257;44.804;10.220;2023-11-19T13:28:37;16.40;99.90
58469;DHT22;44257;44.804;10.220;2023-11-19T13:31:03;16.50;99.90
58469;DHT22;44257;44.804;10.220;2023-11-19T13:33:29;16.60;99.90
58469;DHT22;44257;44.804;10.220;2023-11-19T13:35:56;16.60;99.90
58469;DHT22;44257;44.804;10.220;2023-11-19T13:38:22;16.50;99.90
58469;DHT22;44257;44.804;10.220;2023-11-19T13:40:51;16.50;99.90
58469;DHT22;44257;44.804;10.220;2023-11-19T13:43:17;16.50;99.90
58469;DHT22;44257;44.804;10.220;2023-11-19T13:45:43;16.50;99.90
58469;DHT22;44257;44.804;10.220;2023-11-19T13:48:09;16.50;99.90
58469;DHT22;44257;44.804;10.220;2023-11-19T13:50:35;16.40;99.90
58469;DHT22;44257;44.804;10.220;2023-11-19T13:53:00;16.30;99.90
58469;DHT22;44257;44.804;10.220;2023-11-19T13:55:27;16.00;99.90
58469;DHT22;44257;44.804;10.220;2023-11-19T13:57:52;15.80;99.90
58469;DHT22;44257;44.804;10.220;2023-11-19T14:00:18;15.90;99.90
58469;DHT22;44257;44.804;10.220;2023-11-19T14:02:46;15.90;99.90
58469;DHT22;44257;44.804;10.220;2023-11-19T14:05:13;15.80;99.90
58469;DHT22;44257;44.804;10.220;2023-11-19T14:07:40;15.90;99.90
58469;DHT22;44257;44.804;10.220;2023-11-19T14:10:06;15.80;99.90
58469;DHT22;44257;44.804;10.220;2023-11-19T14:12:34;15.80;99.90
58469;DHT22;44257;44.804;10.220;2023-11-19T14:15:01;15.60;99.90
58469;DHT22;44257;44.804;10.220;2023-11-19T14:17:27;15.40;99.90
58469;DHT22;44257;44.804;10.220;2023-11-19T14:19:53;15.30;99.90
58469;DHT22;44257;44.804;10.220;2023-11-19T14:22:19;15.20;99.90
58469;DHT22;44257;44.804;10.220;2023-11-19T14:24:45;15.10;99.90
58469;DHT22;44257;44.804;10.220;2023-11-19T14:27:11;15.10;99.90
58469;DHT22;44257;44.804;10.220;2023-11-19T14:29:37;15.10;99.90
58469;DHT22;44257;44.804;10.220;2023-11-19T14:32:03;15.10;99.90
58469;DHT22;44257;44.804;10.220;2023-11-19T14:34:32;15.10;99.90
58469;DHT22;44257;44.804;10.220;2023-11-19T14:36:58;15.00;99.90
58469;DHT22;44257;44.804;10.220;2023-11-19T14:39:24;15.00;99.90
58469;DHT22;44257;44.804;10.220;2023-11-19T14:41:50;14.90;99.90
58469;DHT22;44257;44.804;10.220;2023-11-19T14:44:17;14.90;99.90
58469;DHT22;44257;44.804;10.220;2023-11-19T14:46:45;14.80;99.90
58469;DHT22;44257;44.804;10.220;2023-11-19T14:49:11;14.80;99.90
58469;DHT22;44257;44.804;10.220;2023-11-19T14:51:37;14.70;99.90
58469;DHT22;44257;44.804;10.220;2023-11-19T14:54:07;14.60;99.90
58469;DHT22;44257;44.804;10.220;2023-11-19T14:56:32;14.50;99.90
58469;DHT22;44257;44.804;10.220;2023-11-19T14:58:58;14.40;99.90
58469;DHT22;44257;44.804;10.220;2023-11-19T15:01:24;14.30;99.90
58469;DHT22;44257;44.804;10.220;2023-11-19T15:03:50;14.30;99.90
58469;DHT22;44257;44.804;10.220;2023-11-19T15:06:16;14.20;99.90
58469;DHT22;44257;44.804;10.220;2023-11-19T15:08:42;14.10;99.90
58469;DHT22;44257;44.804;10.220;2023-11-19T15:11:10;13.90;99.90
58469;DHT22;44257;44.804;10.220;2023-11-19T15:13:37;13.80;99.90
58469;DHT22;44257;44.804;10.220;2023-11-19T15:16:04;13.70;99.90
58469;DHT22;44257;44.804;10.220;2023-11-19T15:18:36;13.60;99.90
58469;DHT22;44257;44.804;10.220;2023-11-19T15:21:02;13.50;99.90
58469;DHT22;44257;44.804;10.220;2023-11-19T15:23:28;13.30;99.90
58469;DHT22;44257;44.804;10.220;2023-11-19T15:25:55;13.20;99.90
58469;DHT22;44257;44.804;10.220;2023-11-19T15:28:21;13.10;99.90
58469;DHT22;44257;44.804;10.220;2023-11-19T15:30:47;13.00;99.90
58469;DHT22;44257;44.804;10.220;2023-11-19T15:33:13;12.90;99.90
58469;DHT22;44257;44.804;10.220;2023-11-19T15:35:41;12.70;99.90
58469;DHT22;44257;44.804;10.220;2023-11-19T15:38:07;12.60;99.90
58469;DHT22;44257;44.804;10.220;2023-11-19T15:40:35;12.50;99.90
58469;DHT22;44257;44.804;10.220;2023-11-19T15:43:04;12.40;99.90